Time;durP1;ratioP1;P1;durP2;ratioP2;P2;SDS_P1;SDS_P2;PMS_P1;PMS_P2;Temp;Humidity;BMP_temperature;BMP_pressure;BME280_temperature;BME280_humidity;BME280_pressure;Samples;Min_cycle;Max_cycle;Signal;HPM_P1;HPM_P2
2021/11/15 00:01:13;;;;;;;12.63;8.68;;;10.40;81.20;;;;;;5048481;28;20113;-85
2021/11/15 00:03:39;;;;;;;10.23;7.30;;;10.30;81.40;;;;;;5047104;28;20029;-85
2021/11/15 00:06:06;;;;;;;8.02;5.97;;;10.30;81.50;;;;;;5047050;28;20036;-84
2021/11/15 00:08:31;;;;;;;19.38;13.15;;;10.40;81.50;;;;;;5046269;28;20009;-83
2021/11/15 00:10:57;;;;;;;13.98;9.75;;;10.20;81.00;;;;;;5046619;28;20539;-84
2021/11/15 00:13:22;;;;;;;11.50;8.07;;;10.20;81.40;;;;;;5050495;28;20043;-83
2021/11/15 00:15:48;;;;;;;15.23;10.93;;;10.20;81.40;;;;;;5049128;28;20017;-84
2021/11/15 00:18:14;;;;;;;14.43;9.70;;;10.10;81.30;;;;;;5048731;28;20022;-84
2021/11/15 00:20:39;;;;;;;11.85;8.40;;;10.10;81.40;;;;;;5048639;28;20032;-84
2021/11/15 00:23:05;;;;;;;10.07;6.50;;;10.20;81.50;;;;;;5048666;28;20033;-85
2021/11/15 00:25:31;;;;;;;11.32;7.82;;;10.20;81.50;;;;;;5048421;28;20033;-85
2021/11/15 00:27:57;;;;;;;10.30;7.55;;;10.20;81.50;;;;;;5048292;28;20060;-84
2021/11/15 00:30:22;;;;;;;12.85;9.40;;;10.20;81.50;;;;;;5048825;28;20025;-85
2021/11/15 00:32:48;;;;;;;11.82;8.35;;;10.20;81.50;;;;;;5046911;28;20029;-83
2021/11/15 00:35:13;;;;;;;11.93;8.43;;;10.10;81.50;;;;;;5048572;28;20032;-84
2021/11/15 00:37:40;;;;;;;13.65;10.00;;;10.20;81.60;;;;;;5048920;28;20476;-85
2021/11/15 00:40:09;;;;;;;13.38;8.65;;;10.10;81.40;;;;;;5045091;28;20025;-85
2021/11/15 00:42:34;;;;;;;11.77;8.70;;;10.10;81.50;;;;;;5047855;28;20560;-86
2021/11/15 00:45:00;;;;;;;11.63;8.25;;;10.10;81.60;;;;;;5047642;28;20025;-86
2021/11/15 00:47:26;;;;;;;11.93;8.40;;;10.20;81.60;;;;;;5048700;28;20033;-85
2021/11/15 00:49:52;;;;;;;10.27;7.78;;;10.20;81.50;;;;;;5048328;28;20392;-86
2021/11/15 00:52:17;;;;;;;9.20;6.72;;;10.20;81.60;;;;;;5046373;28;20033;-85
2021/11/15 00:54:43;;;;;;;12.20;8.63;;;10.20;81.50;;;;;;5049438;28;20021;-86
2021/11/15 00:57:09;;;;;;;13.98;10.00;;;10.20;81.40;;;;;;5047697;28;20104;-85
2021/11/15 00:59:34;;;;;;;12.48;8.70;;;10.10;81.20;;;;;;5048720;28;20028;-85
2021/11/15 01:02:02;;;;;;;12.52;8.77;;;10.10;81.30;;;;;;5049227;28;20043;-89
2021/11/15 01:04:28;;;;;;;13.05;9.05;;;10.00;81.30;;;;;;5047842;28;20028;-89
2021/11/15 01:06:55;;;;;;;12.43;9.02;;;10.00;81.30;;;;;;5050061;28;20033;-89
2021/11/15 01:09:22;;;;;;;11.27;7.47;;;10.00;81.30;;;;;;5049380;28;20028;-89
2021/11/15 01:11:48;;;;;;;19.15;14.48;;;10.00;81.30;;;;;;5049451;28;20456;-86
2021/11/15 01:14:14;;;;;;;15.60;11.50;;;9.80;80.70;;;;;;5048334;28;20028;-86
2021/11/15 01:16:39;;;;;;;14.52;10.23;;;9.70;81.00;;;;;;5048778;28;20506;-86
2021/11/15 01:19:05;;;;;;;15.13;10.88;;;9.70;81.40;;;;;;5048723;28;20040;-86
2021/11/15 01:21:30;;;;;;;13.93;9.70;;;9.60;81.50;;;;;;5051086;28;20040;-85
2021/11/15 01:23:57;;;;;;;13.02;8.95;;;9.60;81.60;;;;;;5052268;28;20078;-86
2021/11/15 01:26:24;;;;;;;14.30;10.10;;;9.60;81.70;;;;;;5052562;28;20056;-85
2021/11/15 01:28:50;;;;;;;13.68;8.65;;;9.60;81.70;;;;;;5052600;28;20025;-85
2021/11/15 01:31:17;;;;;;;13.93;9.50;;;9.70;81.80;;;;;;5050161;28;20024;-85
2021/11/15 01:33:43;;;;;;;12.45;8.50;;;9.70;81.80;;;;;;5051573;28;20353;-85
2021/11/15 01:36:08;;;;;;;16.55;11.63;;;9.70;81.80;;;;;;5052409;28;20025;-85
2021/11/15 01:38:34;;;;;;;17.85;12.98;;;9.70;82.20;;;;;;5051051;28;20434;-86
2021/11/15 01:41:02;;;;;;;16.77;12.40;;;9.60;81.50;;;;;;5051460;28;20036;-85
2021/11/15 01:43:28;;;;;;;18.67;13.25;;;9.60;81.80;;;;;;5050433;28;20032;-85
2021/11/15 01:45:54;;;;;;;19.92;13.20;;;9.50;81.80;;;;;;5052092;28;20037;-85
2021/11/15 01:48:20;;;;;;;18.25;12.38;;;9.50;81.90;;;;;;5051508;28;20033;-84
2021/11/15 01:50:46;;;;;;;14.10;10.02;;;9.50;82.00;;;;;;5050751;28;20033;-85
2021/11/15 01:53:12;;;;;;;13.70;10.27;;;9.50;82.20;;;;;;5049646;28;20033;-86
2021/11/15 01:55:40;;;;;;;17.95;12.65;;;9.50;82.10;;;;;;5051147;28;20491;-85
2021/11/15 01:58:09;;;;;;;16.17;11.90;;;9.50;82.00;;;;;;5050408;28;20063;-85
2021/11/15 02:00:51;;;;;;;17.17;12.32;;;9.50;82.20;;;;;;5051324;28;20033;-85
2021/11/15 02:03:18;;;;;;;19.90;13.80;;;9.50;82.30;;;;;;5051949;28;20107;-85
2021/11/15 02:05:44;;;;;;;19.73;13.77;;;9.40;82.30;;;;;;5051486;28;20387;-85
2021/11/15 02:08:10;;;;;;;20.83;14.20;;;9.40;82.50;;;;;;5046226;28;20539;-85
2021/11/15 02:10:37;;;;;;;23.52;14.77;;;9.30;82.60;;;;;;5051990;28;20032;-85
2021/11/15 02:13:03;;;;;;;20.83;13.68;;;9.20;82.70;;;;;;5051678;28;20483;-88
2021/11/15 02:15:28;;;;;;;19.67;13.77;;;9.20;83.00;;;;;;5052035;28;20039;-88
2021/11/15 02:17:54;;;;;;;19.27;12.90;;;9.20;83.20;;;;;;5050146;28;20013;-87
2021/11/15 02:20:25;;;;;;;21.73;15.07;;;9.20;83.30;;;;;;5052954;28;20021;-87
2021/11/15 02:22:53;;;;;;;19.80;14.40;;;9.20;83.40;;;;;;5049287;28;20519;-87
2021/11/15 02:25:25;;;;;;;18.05;13.40;;;9.10;83.50;;;;;;5046901;28;20025;-86
2021/11/15 02:27:52;;;;;;;20.10;13.80;;;9.20;83.60;;;;;;5050549;28;20379;-86
2021/11/15 02:30:22;;;;;;;20.13;14.30;;;9.20;83.70;;;;;;5051782;28;20451;-86
2021/11/15 02:32:48;;;;;;;18.27;12.38;;;9.10;83.60;;;;;;5051485;28;20025;-86
2021/11/15 02:35:15;;;;;;;20.60;14.25;;;9.20;83.70;;;;;;5048254;28;20378;-86
2021/11/15 02:37:41;;;;;;;19.05;12.50;;;9.20;83.60;;;;;;5051458;28;20368;-85
2021/11/15 02:40:10;;;;;;;18.05;12.60;;;9.20;83.60;;;;;;5052260;28;20029;-87
2021/11/15 02:42:35;;;;;;;18.23;12.40;;;9.20;83.60;;;;;;5049775;28;20043;-87
2021/11/15 02:45:05;;;;;;;25.15;16.92;;;9.20;83.60;;;;;;5051205;28;20021;-87
2021/11/15 02:47:31;;;;;;;21.40;14.60;;;9.20;83.60;;;;;;5066682;28;20033;-87
2021/11/15 02:49:57;;;;;;;23.10;16.25;;;9.20;83.80;;;;;;5050554;28;20124;-87
2021/11/15 02:52:22;;;;;;;18.05;12.13;;;9.20;83.80;;;;;;5047433;28;20423;-87
2021/11/15 02:54:49;;;;;;;23.48;15.82;;;9.20;84.00;;;;;;5050451;28;20052;-86
2021/11/15 02:57:16;;;;;;;18.70;12.90;;;9.10;83.90;;;;;;5050003;28;20396;-87
2021/11/15 02:59:42;;;;;;;22.50;15.27;;;9.20;84.10;;;;;;5049748;28;20021;-86
2021/11/15 03:02:08;;;;;;;25.70;17.15;;;9.20;83.90;;;;;;5047427;28;20037;-86
2021/11/15 03:04:33;;;;;;;22.98;15.75;;;9.20;84.40;;;;;;5051023;28;20375;-86
2021/11/15 03:06:59;;;;;;;20.55;14.68;;;9.10;83.90;;;;;;5050787;28;20033;-85
2021/11/15 03:09:25;;;;;;;17.92;12.45;;;9.10;83.90;;;;;;5049679;28;20035;-84
2021/11/15 03:11:50;;;;;;;22.45;15.50;;;9.20;83.90;;;;;;5050927;28;20112;-84
2021/11/15 03:14:16;;;;;;;17.98;12.23;;;9.20;83.80;;;;;;5050186;28;20029;-85
2021/11/15 03:16:41;;;;;;;21.15;14.55;;;9.20;83.80;;;;;;5050773;28;20108;-84
2021/11/15 03:19:07;;;;;;;23.65;16.23;;;9.20;83.60;;;;;;5049940;28;20032;-84
2021/11/15 03:21:32;;;;;;;24.70;17.35;;;9.20;83.60;;;;;;5050890;28;20143;-84
2021/11/15 03:23:58;;;;;;;23.00;15.65;;;9.10;83.40;;;;;;5049050;28;20056;-84
2021/11/15 03:26:26;;;;;;;20.88;13.65;;;9.10;83.50;;;;;;5050141;28;20396;-84
2021/11/15 03:28:53;;;;;;;17.95;11.98;;;9.10;83.60;;;;;;5049680;28;20451;-85
2021/11/15 03:31:28;;;;;;;21.27;14.95;;;9.10;83.70;;;;;;5050543;28;20016;-85
2021/11/15 03:33:57;;;;;;;26.88;18.25;;;9.10;83.50;;;;;;5047349;28;20033;-84
2021/11/15 03:36:24;;;;;;;21.25;14.93;;;9.10;83.40;;;;;;5050707;28;20058;-84
2021/11/15 03:38:51;;;;;;;21.60;14.27;;;9.20;83.50;;;;;;5050185;28;20029;-84
2021/11/15 03:41:17;;;;;;;19.75;14.10;;;9.10;83.40;;;;;;5050822;28;20080;-85
2021/11/15 03:43:42;;;;;;;23.77;15.20;;;9.20;83.40;;;;;;5048992;28;20107;-84
2021/11/15 03:46:08;;;;;;;21.38;14.95;;;9.20;83.30;;;;;;5048946;28;20167;-85
2021/11/15 03:48:34;;;;;;;28.90;18.85;;;9.20;83.10;;;;;;5050288;28;20494;-85
2021/11/15 03:50:59;;;;;;;25.00;17.23;;;9.10;83.10;;;;;;5048849;28;20040;-87
2021/11/15 03:53:31;;;;;;;24.30;16.13;;;9.10;83.30;;;;;;5048625;28;20021;-87
2021/11/15 03:55:57;;;;;;;22.20;14.93;;;9.10;83.30;;;;;;5050224;28;20055;-86
2021/11/15 03:58:23;;;;;;;23.67;16.40;;;9.20;83.30;;;;;;5049434;28;20378;-86
2021/11/15 04:00:49;;;;;;;21.23;13.85;;;9.10;83.00;;;;;;5047194;28;20104;-86
2021/11/15 04:03:20;;;;;;;20.25;13.35;;;9.20;83.20;;;;;;5049302;28;20135;-85
2021/11/15 04:05:54;;;;;;;29.33;20.65;;;9.20;83.20;;;;;;5045564;28;20024;-84
2021/11/15 04:08:19;;;;;;;23.70;15.80;;;9.10;82.60;;;;;;5048071;28;20025;-85
2021/11/15 04:10:46;;;;;;;24.40;15.82;;;9.00;82.90;;;;;;5050283;28;20086;-84
2021/11/15 04:13:35;;;;;;;26.13;17.50;;;9.10;83.00;;;;;;5049671;28;20029;-85
2021/11/15 04:16:04;;;;;;;25.77;17.63;;;9.00;83.00;;;;;;5050159;28;20029;-87
2021/11/15 04:18:34;;;;;;;33.15;20.17;;;9.10;83.00;;;;;;5051182;28;20021;-85
2021/11/15 04:21:02;;;;;;;29.13;19.52;;;9.00;83.00;;;;;;5048692;28;20052;-85
2021/11/15 04:23:27;;;;;;;30.33;19.55;;;9.00;83.20;;;;;;5048446;28;20108;-85
2021/11/15 04:25:53;;;;;;;25.67;15.98;;;9.00;83.20;;;;;;5047832;28;20567;-85
2021/11/15 04:28:19;;;;;;;25.73;17.05;;;9.00;83.30;;;;;;5047191;28;20054;-85
2021/11/15 04:30:44;;;;;;;23.85;16.00;;;9.00;83.80;;;;;;5049350;28;20116;-86
2021/11/15 04:33:10;;;;;;;23.35;14.85;;;9.00;83.20;;;;;;5044301;28;20487;-84
2021/11/15 04:35:36;;;;;;;24.13;15.90;;;9.10;83.20;;;;;;5048398;28;20025;-83
2021/11/15 04:38:03;;;;;;;19.42;13.55;;;9.10;83.10;;;;;;5048822;28;20491;-83
2021/11/15 04:40:30;;;;;;;22.27;14.88;;;9.10;83.10;;;;;;5048107;28;20491;-85
2021/11/15 04:42:56;;;;;;;17.35;11.85;;;9.10;83.00;;;;;;5045989;28;20119;-85
2021/11/15 04:45:21;;;;;;;16.90;11.70;;;9.20;83.10;;;;;;5047123;28;20111;-85
2021/11/15 04:47:47;;;;;;;26.38;17.55;;;9.20;83.10;;;;;;5033601;28;20190;-85
2021/11/15 04:50:14;;;;;;;25.55;17.17;;;9.20;82.90;;;;;;5046475;28;20425;-85
2021/11/15 04:52:39;;;;;;;26.65;17.23;;;9.10;82.90;;;;;;5049096;28;20021;-85
2021/11/15 04:55:08;;;;;;;18.92;13.05;;;9.10;83.10;;;;;;5048875;28;20029;-85
2021/11/15 04:57:34;;;;;;;20.77;13.73;;;9.10;83.20;;;;;;5052984;28;20107;-85
2021/11/15 05:00:00;;;;;;;21.05;14.35;;;9.10;83.20;;;;;;5052195;28;20036;-86
2021/11/15 05:02:27;;;;;;;23.30;16.27;;;9.20;83.10;;;;;;5052322;28;20438;-86
2021/11/15 05:04:53;;;;;;;23.45;15.43;;;9.10;83.00;;;;;;5051525;28;20562;-86
2021/11/15 05:07:18;;;;;;;20.90;13.95;;;9.10;83.10;;;;;;5052388;28;21800;-87
2021/11/15 05:09:44;;;;;;;25.10;17.15;;;9.10;83.10;;;;;;5052373;28;20028;-85
2021/11/15 05:12:10;;;;;;;20.30;13.40;;;9.20;83.00;;;;;;5051897;28;20032;-85
2021/11/15 05:14:35;;;;;;;22.17;14.38;;;9.20;83.10;;;;;;5051747;28;20017;-85
2021/11/15 05:17:01;;;;;;;24.27;16.90;;;9.20;83.00;;;;;;5051997;28;20037;-85
2021/11/15 05:19:26;;;;;;;21.25;14.07;;;9.10;82.90;;;;;;5050562;28;20017;-84
2021/11/15 05:21:52;;;;;;;25.77;17.30;;;9.20;83.00;;;;;;5052053;28;20510;-85
2021/11/15 05:24:18;;;;;;;22.02;15.48;;;9.20;82.90;;;;;;5049987;28;20013;-84
2021/11/15 05:26:45;;;;;;;20.25;14.38;;;9.20;82.90;;;;;;5048755;28;20460;-84
2021/11/15 05:29:12;;;;;;;26.55;17.50;;;9.10;82.90;;;;;;5050264;28;20483;-84
2021/11/15 05:31:37;;;;;;;23.02;15.82;;;9.10;83.00;;;;;;5050166;28;20143;-86
2021/11/15 05:34:04;;;;;;;26.25;17.00;;;9.10;83.20;;;;;;5051056;28;20491;-88
2021/11/15 05:36:30;;;;;;;23.45;15.05;;;9.10;83.30;;;;;;5050283;28;20028;-87
2021/11/15 05:38:56;;;;;;;20.33;13.82;;;9.10;83.40;;;;;;5049695;28;20166;-86
2021/11/15 05:41:22;;;;;;;23.30;15.05;;;9.10;83.40;;;;;;5051581;28;20529;-86
2021/11/15 05:43:47;;;;;;;20.95;13.38;;;9.20;83.30;;;;;;5049694;28;20021;-86
2021/11/15 05:46:13;;;;;;;21.02;14.43;;;9.10;83.30;;;;;;5050276;28;20036;-87
2021/11/15 05:48:38;;;;;;;15.25;10.20;;;9.10;83.50;;;;;;5050479;28;20059;-89
2021/11/15 05:51:04;;;;;;;19.70;12.90;;;9.10;83.40;;;;;;5051266;28;20167;-88
2021/11/15 05:53:30;;;;;;;18.92;12.05;;;9.10;83.40;;;;;;5051210;28;20229;-88
2021/11/15 05:55:56;;;;;;;12.98;8.48;;;9.20;83.40;;;;;;5050360;28;20032;-88
2021/11/15 05:58:21;;;;;;;22.08;14.20;;;9.20;83.30;;;;;;5051513;28;20479;-87
2021/11/15 06:00:48;;;;;;;21.15;14.25;;;9.10;83.10;;;;;;5050731;28;20025;-89
2021/11/15 06:03:15;;;;;;;20.35;13.10;;;9.00;83.20;;;;;;5051269;28;20464;-89
2021/11/15 06:05:40;;;;;;;17.55;11.63;;;9.00;83.40;;;;;;5049759;28;20028;-88
2021/11/15 06:08:06;;;;;;;21.70;14.52;;;9.00;83.50;;;;;;5050717;28;20029;-88
2021/11/15 06:10:32;;;;;;;18.50;12.05;;;9.00;83.50;;;;;;5050257;28;20037;-89
2021/11/15 06:12:58;;;;;;;17.67;11.57;;;9.00;83.60;;;;;;5050878;28;20025;-88
2021/11/15 06:15:23;;;;;;;15.80;10.48;;;9.00;83.60;;;;;;5051292;28;20479;-89
2021/11/15 06:17:50;;;;;;;14.77;9.60;;;9.10;83.60;;;;;;5050306;28;20240;-88
2021/11/15 06:20:17;;;;;;;20.60;13.45;;;9.10;83.50;;;;;;5048534;28;20033;-86
2021/11/15 06:22:44;;;;;;;22.60;14.32;;;9.10;83.30;;;;;;5051011;28;20039;-83
2021/11/15 06:25:11;;;;;;;18.52;12.25;;;9.00;83.50;;;;;;5048216;28;20021;-79
2021/11/15 06:27:38;;;;;;;16.35;10.50;;;9.00;83.60;;;;;;5051064;28;20029;-78
2021/11/15 06:30:07;;;;;;;17.65;11.77;;;9.10;83.70;;;;;;5048793;28;20423;-78
2021/11/15 06:32:33;;;;;;;16.02;10.73;;;9.10;83.60;;;;;;5049067;28;20087;-78
2021/11/15 06:34:59;;;;;;;18.65;13.48;;;9.10;83.60;;;;;;5046516;28;20021;-78
2021/11/15 06:37:25;;;;;;;17.80;11.80;;;9.00;83.50;;;;;;5044279;28;20029;-78
2021/11/15 06:39:51;;;;;;;19.25;12.00;;;9.00;83.80;;;;;;5043552;28;20063;-79
2021/11/15 06:42:17;;;;;;;16.55;11.00;;;9.00;84.00;;;;;;5050160;28;20468;-79
2021/11/15 06:44:42;;;;;;;16.95;10.32;;;9.00;84.00;;;;;;5048302;28;20062;-81
2021/11/15 06:47:08;;;;;;;14.00;9.80;;;9.10;84.00;;;;;;5049474;28;20490;-80
2021/11/15 06:49:34;;;;;;;12.10;8.00;;;9.10;83.80;;;;;;5048067;28;20387;-80
2021/11/15 06:51:59;;;;;;;19.42;12.73;;;9.20;83.80;;;;;;5049852;28;20017;-80
2021/11/15 06:54:25;;;;;;;15.90;10.07;;;9.20;83.60;;;;;;5049396;28;20020;-79
2021/11/15 06:56:52;;;;;;;16.30;10.50;;;9.20;83.70;;;;;;5046891;28;20029;-79
2021/11/15 06:59:18;;;;;;;20.42;12.55;;;9.20;83.70;;;;;;5047472;28;20021;-79
2021/11/15 07:01:44;;;;;;;18.85;12.40;;;9.20;83.70;;;;;;5038706;28;20527;-79
2021/11/15 07:04:10;;;;;;;21.67;14.15;;;9.00;83.70;;;;;;5046872;28;20017;-80
2021/11/15 07:06:37;;;;;;;20.02;12.88;;;9.00;84.10;;;;;;5047078;28;20025;-79
2021/11/15 07:09:04;;;;;;;20.70;13.57;;;8.90;84.30;;;;;;5046922;28;20036;-79
2021/11/15 07:11:31;;;;;;;20.48;13.35;;;8.90;84.50;;;;;;5049337;28;20036;-80
2021/11/15 07:13:56;;;;;;;20.83;13.63;;;8.80;84.70;;;;;;5045960;28;20017;-81
2021/11/15 07:16:22;;;;;;;18.17;11.20;;;8.80;85.00;;;;;;5046156;28;20032;-80
2021/11/15 07:18:52;;;;;;;16.77;10.15;;;8.80;85.00;;;;;;5045866;28;20490;-80
2021/11/15 07:21:19;;;;;;;13.70;8.90;;;8.80;85.00;;;;;;5047126;28;20041;-81
2021/11/15 07:23:44;;;;;;;11.45;7.90;;;8.90;84.90;;;;;;5043987;28;20025;-81
2021/11/15 07:26:10;;;;;;;17.15;10.35;;;8.90;84.80;;;;;;5046753;28;20033;-81
2021/11/15 07:28:35;;;;;;;15.75;10.75;;;8.90;84.80;;;;;;5043744;28;20028;-81
2021/11/15 07:31:01;;;;;;;15.02;10.43;;;8.80;84.70;;;;;;5046926;28;20021;-81
2021/11/15 07:33:27;;;;;;;16.27;11.50;;;8.80;84.70;;;;;;5045145;28;20032;-82
2021/11/15 07:35:54;;;;;;;21.92;14.65;;;8.80;84.70;;;;;;5046640;28;20606;-81
2021/11/15 07:38:20;;;;;;;16.02;10.50;;;8.70;84.70;;;;;;5044684;28;20021;-82
2021/11/15 07:40:49;;;;;;;14.82;9.25;;;8.70;84.90;;;;;;5046197;28;20107;-76
2021/11/15 07:43:15;;;;;;;21.30;14.15;;;8.80;84.90;;;;;;5044816;28;20410;-79
2021/11/15 07:45:42;;;;;;;12.35;8.18;;;8.70;84.80;;;;;;5045779;28;20032;-79
2021/11/15 07:48:08;;;;;;;13.63;9.10;;;8.80;84.90;;;;;;5046269;28;20039;-79
2021/11/15 07:50:35;;;;;;;12.77;8.70;;;8.70;84.80;;;;;;5046427;28;20044;-79
2021/11/15 07:53:02;;;;;;;13.82;8.32;;;8.70;84.80;;;;;;5045974;28;20159;-79
2021/11/15 07:55:27;;;;;;;15.48;9.73;;;8.80;84.80;;;;;;5044706;28;20032;-81
2021/11/15 07:57:56;;;;;;;14.57;9.55;;;8.80;84.70;;;;;;5048462;28;20029;-94
2021/11/15 08:00:24;;;;;;;229.90;27.38;;;8.80;84.60;;;;;;5046935;28;20033;-89
2021/11/15 08:02:51;;;;;;;31.35;11.18;;;8.80;84.50;;;;;;5045848;28;20037;-88
2021/11/15 08:05:19;;;;;;;15.40;9.57;;;8.90;84.50;;;;;;5050151;28;20017;-90
2021/11/15 08:07:50;;;;;;;22.13;12.57;;;8.80;84.40;;;;;;5049378;28;20025;-89
2021/11/15 08:10:17;;;;;;;14.02;9.65;;;8.80;84.50;;;;;;5048382;28;20059;-88
2021/11/15 08:12:47;;;;;;;15.00;9.95;;;8.90;84.60;;;;;;5032572;28;20480;-92
2021/11/15 08:15:17;;;;;;;12.25;7.95;;;8.90;84.50;;;;;;5050833;28;20060;-90
2021/11/15 08:17:46;;;;;;;10.30;6.55;;;8.90;84.40;;;;;;5046883;28;20034;-93
2021/11/15 08:20:18;;;;;;;18.77;13.05;;;8.90;84.30;;;;;;5049245;28;20033;-91
2021/11/15 08:22:47;;;;;;;20.02;12.77;;;8.80;84.20;;;;;;5045395;28;20521;-89
2021/11/15 08:25:51;;;;;;;20.50;13.27;;;8.70;84.20;;;;;;5049798;28;20383;-91
2021/11/15 08:28:18;;;;;;;14.10;9.18;;;8.50;84.30;;;;;;5045208;28;20025;-87
2021/11/15 08:30:44;;;;;;;15.52;10.07;;;8.50;84.80;;;;;;5051614;28;20029;-91
2021/11/15 08:33:12;;;;;;;14.75;8.63;;;8.50;85.60;;;;;;5052974;28;20025;-90
2021/11/15 08:35:38;;;;;;;13.80;8.13;;;8.60;85.00;;;;;;5053389;28;20115;-90
2021/11/15 08:38:15;;;;;;;16.45;10.38;;;8.70;84.90;;;;;;5049121;28;20447;-89
2021/11/15 08:40:45;;;;;;;14.32;9.27;;;8.60;84.60;;;;;;5050133;28;20040;-90
2021/11/15 08:43:14;;;;;;;19.85;11.35;;;8.60;84.60;;;;;;5051356;28;20033;-90
2021/11/15 08:45:40;;;;;;;17.10;11.05;;;8.50;84.70;;;;;;5052590;28;20040;-90
2021/11/15 08:48:06;;;;;;;18.45;11.70;;;8.50;84.90;;;;;;5052972;28;20029;-89
2021/11/15 08:50:32;;;;;;;21.95;13.30;;;8.50;85.00;;;;;;5053889;28;20021;-85
2021/11/15 08:52:58;;;;;;;20.70;12.20;;;8.50;85.10;;;;;;5048384;28;20025;-90
2021/11/15 08:55:25;;;;;;;18.92;11.98;;;8.40;85.30;;;;;;5046497;28;20040;-90
2021/11/15 08:57:56;;;;;;;18.83;11.15;;;8.30;85.30;;;;;;5052467;28;20048;-93
2021/11/15 09:00:24;;;;;;;20.98;11.93;;;8.30;85.50;;;;;;5049539;28;20049;-90
2021/11/15 09:02:50;;;;;;;22.08;13.18;;;8.30;85.60;;;;;;5049968;28;20096;-90
2021/11/15 09:05:15;;;;;;;15.65;9.38;;;8.30;85.70;;;;;;5049836;28;20017;-87
2021/11/15 09:07:44;;;;;;;16.52;9.85;;;8.40;85.90;;;;;;5051035;28;20051;-87
2021/11/15 09:10:13;;;;;;;15.70;10.07;;;8.40;85.60;;;;;;5052994;28;20017;-88
2021/11/15 09:12:48;;;;;;;18.85;10.85;;;8.40;85.50;;;;;;5053981;28;20075;-88
2021/11/15 09:15:16;;;;;;;13.80;8.10;;;8.40;85.50;;;;;;5048561;28;20143;-89
2021/11/15 09:17:45;;;;;;;13.38;8.40;;;8.50;85.50;;;;;;5052686;28;20032;-89
2021/11/15 09:20:15;;;;;;;17.13;9.57;;;8.50;85.40;;;;;;5044707;28;20029;-88
2021/11/15 09:22:44;;;;;;;12.48;7.22;;;8.50;85.30;;;;;;5035879;28;20033;-88
2021/11/15 09:25:11;;;;;;;11.52;7.38;;;8.50;85.20;;;;;;5051255;28;20032;-88
2021/11/15 09:27:43;;;;;;;10.02;5.90;;;8.50;85.10;;;;;;5052949;28;20040;-88
2021/11/15 09:30:11;;;;;;;10.23;6.30;;;8.50;85.00;;;;;;5050077;28;20028;-88
2021/11/15 09:32:38;;;;;;;13.52;8.00;;;8.50;85.00;;;;;;5048509;28;20029;-88
2021/11/15 09:35:05;;;;;;;8.68;5.72;;;8.50;85.00;;;;;;5052464;28;20040;-88
2021/11/15 09:37:33;;;;;;;10.00;5.90;;;8.50;85.10;;;;;;5050750;28;20084;-88
2021/11/15 09:39:59;;;;;;;7.30;4.88;;;8.60;85.10;;;;;;5052223;28;20557;-87
2021/11/15 09:42:25;;;;;;;13.10;7.18;;;8.60;85.00;;;;;;5050368;28;20032;-88
2021/11/15 09:44:51;;;;;;;8.30;5.25;;;8.50;84.90;;;;;;5052799;28;20029;-88
2021/11/15 09:47:16;;;;;;;13.23;7.50;;;8.50;84.90;;;;;;5047930;28;20185;-88
2021/11/15 09:49:43;;;;;;;10.88;6.13;;;8.50;84.70;;;;;;5050839;28;20024;-89
2021/11/15 09:52:10;;;;;;;11.25;6.50;;;8.50;84.90;;;;;;5052783;28;20017;-89
2021/11/15 09:54:36;;;;;;;10.88;6.75;;;8.50;84.90;;;;;;5050839;28;20040;-88
2021/11/15 09:57:03;;;;;;;12.45;7.55;;;8.40;84.90;;;;;;5051671;28;20025;-87
2021/11/15 09:59:29;;;;;;;14.05;7.70;;;8.40;85.00;;;;;;5052837;28;20021;-86
2021/11/15 10:01:57;;;;;;;16.98;9.10;;;8.30;85.10;;;;;;5048228;28;20037;-90
2021/11/15 10:04:24;;;;;;;17.02;8.88;;;8.20;85.00;;;;;;5048644;28;20515;-85
2021/11/15 10:06:56;;;;;;;13.20;6.80;;;8.20;85.50;;;;;;5051130;28;20048;-82
2021/11/15 10:09:31;;;;;;;11.73;6.60;;;8.20;85.70;;;;;;5050518;28;20021;-85
2021/11/15 10:11:58;;;;;;;16.63;9.10;;;8.20;85.60;;;;;;5050342;28;20032;-85
2021/11/15 10:14:24;;;;;;;16.02;8.63;;;8.10;85.60;;;;;;5050734;28;20079;-86
2021/11/15 10:16:52;;;;;;;19.73;10.93;;;8.10;85.90;;;;;;5052281;28;20091;-84
2021/11/15 10:19:20;;;;;;;12.82;7.47;;;8.10;86.00;;;;;;5061698;28;20045;-84
2021/11/15 10:21:54;;;;;;;14.55;8.35;;;8.10;86.10;;;;;;5050940;28;20035;-82
2021/11/15 10:24:27;;;;;;;14.82;7.82;;;8.10;86.10;;;;;;5049019;28;20021;-81
2021/11/15 10:26:57;;;;;;;19.02;11.18;;;8.10;86.20;;;;;;5047902;28;20095;-84
2021/11/15 10:29:30;;;;;;;16.15;9.55;;;8.10;86.00;;;;;;5049118;28;20025;-87
2021/11/15 10:32:09;;;;;;;16.13;9.02;;;8.00;86.20;;;;;;5048139;28;20025;-81
2021/11/15 10:34:38;;;;;;;17.40;9.52;;;8.00;86.40;;;;;;5047254;28;20083;-83
2021/11/15 10:37:04;;;;;;;12.85;7.75;;;7.90;86.50;;;;;;5048169;28;20036;-84
2021/11/15 10:39:39;;;;;;;17.40;9.65;;;8.00;86.50;;;;;;5048769;28;20127;-83
2021/11/15 10:42:07;;;;;;;20.65;11.00;;;8.00;86.40;;;;;;5048037;28;20132;-84
2021/11/15 10:44:35;;;;;;;21.35;11.55;;;7.90;86.40;;;;;;5049624;28;20040;-84
2021/11/15 10:47:01;;;;;;;23.75;13.15;;;7.90;86.60;;;;;;5048265;28;20083;-83
2021/11/15 10:49:27;;;;;;;20.48;11.80;;;7.80;86.50;;;;;;5047569;28;20487;-83
2021/11/15 10:52:00;;;;;;;16.50;9.85;;;7.70;86.70;;;;;;5045482;28;20105;-84
2021/11/15 10:54:33;;;;;;;11.57;7.32;;;7.70;86.70;;;;;;5048698;28;20032;-83
2021/11/15 10:57:16;;;;;;;15.52;8.90;;;7.80;86.90;;;;;;5037326;28;20448;-82
2021/11/15 10:59:41;;;;;;;;;;;7.80;86.80;;;;;;5047610;28;20102;-83
2021/11/15 11:02:26;;;;;;;14.35;7.88;;;7.80;86.60;;;;;;5047650;28;19920;-82
2021/11/15 11:05:09;;;;;;;12.68;7.38;;;7.90;86.70;;;;;;5045815;28;20039;-82
2021/11/15 11:07:36;;;;;;;15.35;8.93;;;8.00;86.50;;;;;;5048024;28;20025;-83
2021/11/15 11:10:08;;;;;;;13.15;7.63;;;8.00;86.30;;;;;;5050760;28;20024;-84
2021/11/15 11:12:36;;;;;;;14.98;9.02;;;8.00;86.30;;;;;;5048268;28;20028;-84
2021/11/15 11:15:26;;;;;;;16.58;9.65;;;8.10;86.10;;;;;;5045768;28;20383;-84
2021/11/15 11:18:00;;;;;;;17.27;9.98;;;8.00;85.90;;;;;;5043826;28;20418;-83
2021/11/15 11:20:35;;;;;;;19.45;11.32;;;7.90;86.00;;;;;;5048583;28;20067;-82
2021/11/15 11:25:50;;;;;;;17.98;10.35;;;7.70;86.30;;;;;;5046595;28;20029;-82
2021/11/15 11:28:35;;;;;;;17.58;9.25;;;7.70;86.50;;;;;;5046183;28;20033;-84
2021/11/15 11:31:02;;;;;;;16.63;9.85;;;7.80;86.60;;;;;;5043145;28;20531;-83
2021/11/15 11:33:30;;;;;;;15.48;9.05;;;7.80;86.30;;;;;;5048955;28;20021;-84
2021/11/15 11:36:00;;;;;;;18.00;9.80;;;7.70;86.20;;;;;;5048875;28;20029;-80
2021/11/15 11:38:27;;;;;;;19.85;11.13;;;7.70;86.10;;;;;;5047774;28;20025;-84
2021/11/15 11:40:53;;;;;;;13.95;8.40;;;7.60;86.20;;;;;;5049075;28;20462;-83
2021/11/15 11:43:19;;;;;;;17.58;9.93;;;7.60;86.40;;;;;;5047360;28;20033;-82
2021/11/15 11:45:46;;;;;;;16.92;9.20;;;7.60;86.50;;;;;;5048668;28;20025;-81
2021/11/15 11:48:16;;;;;;;15.60;9.27;;;7.60;86.70;;;;;;5048332;28;20021;-83
2021/11/15 11:50:50;;;;;;;13.32;7.40;;;7.60;86.70;;;;;;5048175;28;20032;-84
2021/11/15 11:53:21;;;;;;;13.98;7.80;;;7.80;86.70;;;;;;5048396;28;20503;-87
2021/11/15 11:55:48;;;;;;;17.17;9.25;;;7.90;86.50;;;;;;5048150;28;20025;-80
2021/11/15 11:58:35;;;;;;;15.23;6.90;;;7.90;86.30;;;;;;5040926;28;20371;-81
2021/11/15 12:01:23;;;;;;;13.10;7.18;;;8.00;86.30;;;;;;5040242;28;20024;-81
2021/11/15 12:04:12;;;;;;;9.25;5.80;;;8.10;86.10;;;;;;5043598;28;20028;-81
2021/11/15 12:06:38;;;;;;;14.80;7.90;;;8.10;85.90;;;;;;5044805;28;20103;-86
2021/11/15 12:09:05;;;;;;;15.80;8.82;;;8.00;85.80;;;;;;5039457;28;20409;-81
2021/11/15 12:11:36;;;;;;;14.55;8.13;;;8.00;85.70;;;;;;5046023;28;20024;-81
2021/11/15 12:14:04;;;;;;;16.23;8.80;;;8.00;85.70;;;;;;5043591;28;20072;-84
2021/11/15 12:16:59;;;;;;;18.10;9.52;;;7.80;85.40;;;;;;5042689;28;20020;-84
2021/11/15 12:19:46;;;;;;;19.08;9.30;;;7.80;85.90;;;;;;5042901;28;20032;-87
2021/11/15 12:22:17;;;;;;;14.90;8.10;;;7.80;86.10;;;;;;5045177;28;20039;-83
2021/11/15 12:25:04;;;;;;;17.13;9.20;;;7.80;86.20;;;;;;5046517;28;20021;-83
2021/11/15 12:27:52;;;;;;;14.75;8.30;;;7.80;86.10;;;;;;5042463;28;20100;-82
2021/11/15 12:30:23;;;;;;;17.50;10.07;;;7.80;86.20;;;;;;5044572;28;20036;-83
2021/11/15 12:33:16;;;;;;;17.95;9.40;;;7.80;86.10;;;;;;5045872;28;20040;-83
2021/11/15 12:36:05;;;;;;;18.08;9.60;;;7.70;86.20;;;;;;5038941;28;20021;-82
2021/11/15 12:38:33;;;;;;;22.15;11.02;;;7.70;86.40;;;;;;5044869;28;20037;-83
2021/11/15 12:40:59;;;;;;;18.55;10.70;;;7.70;86.30;;;;;;5041013;28;20653;-83
2021/11/15 12:43:25;;;;;;;22.23;12.20;;;7.60;86.30;;;;;;5038856;28;20502;-83
2021/11/15 12:46:16;;;;;;;16.30;7.93;;;7.60;86.40;;;;;;5045436;28;20021;-83
2021/11/15 12:48:44;;;;;;;20.38;9.77;;;7.50;86.60;;;;;;5033900;28;20527;-82